createdAt,value
2024-01-27T00:01:13.001Z,5.60
2024-01-27T00:03:40.683Z,5.60
2024-01-27T00:06:08.528Z,5.60
2024-01-27T00:08:36.120Z,5.70
2024-01-27T00:11:03.941Z,5.70
2024-01-27T00:13:31.536Z,5.70
2024-01-27T00:15:59.161Z,5.70
2024-01-27T00:18:26.946Z,5.80
2024-01-27T00:20:54.873Z,5.80
2024-01-27T00:23:22.903Z,5.80
2024-01-27T00:25:52.352Z,5.80
2024-01-27T00:28:19.915Z,5.80
2024-01-27T00:30:48.146Z,5.80
2024-01-27T00:33:15.897Z,5.70
2024-01-27T00:35:44.425Z,5.70
2024-01-27T00:38:12.111Z,5.70
2024-01-27T00:40:40.028Z,5.70
2024-01-27T00:43:07.669Z,5.70
2024-01-27T00:45:35.422Z,5.70
2024-01-27T00:48:03.353Z,5.60
2024-01-27T00:50:31.178Z,5.60
2024-01-27T00:52:59.470Z,5.60
2024-01-27T00:55:27.397Z,5.50
2024-01-27T00:57:55.276Z,5.50
2024-01-27T01:00:22.941Z,5.50
2024-01-27T01:02:50.611Z,5.50
2024-01-27T01:05:18.371Z,5.40
2024-01-27T01:07:45.917Z,5.40
2024-01-27T01:10:13.773Z,5.40
2024-01-27T01:12:41.394Z,5.40
2024-01-27T01:15:09.659Z,5.40
2024-01-27T01:17:37.570Z,5.40
2024-01-27T01:20:05.769Z,5.40
2024-01-27T01:22:33.472Z,5.40
2024-01-27T01:25:01.105Z,5.40
2024-01-27T01:27:28.700Z,5.40
2024-01-27T01:29:56.470Z,5.40
2024-01-27T01:32:24.705Z,5.40
2024-01-27T01:34:52.489Z,5.40
2024-01-27T01:37:20.158Z,5.50
2024-01-27T01:39:47.779Z,5.50
2024-01-27T01:42:15.454Z,5.50
2024-01-27T01:44:43.170Z,5.50
2024-01-27T01:47:10.944Z,5.50
2024-01-27T01:49:38.908Z,5.50
2024-01-27T01:52:07.189Z,5.50
2024-01-27T01:54:35.408Z,5.50
2024-01-27T01:57:04.506Z,5.50
2024-01-27T01:59:32.206Z,5.50
2024-01-27T02:01:59.801Z,5.60
2024-01-27T02:04:27.455Z,5.60
2024-01-27T02:06:55.111Z,5.50
2024-01-27T02:09:22.964Z,5.60
2024-01-27T02:11:50.660Z,5.60
2024-01-27T02:14:18.864Z,5.60
2024-01-27T02:16:46.456Z,5.60
2024-01-27T02:19:14.199Z,5.60
2024-01-27T02:21:41.901Z,5.60
2024-01-27T02:24:10.916Z,5.60
2024-01-27T02:26:38.861Z,5.60
2024-01-27T02:29:06.428Z,5.60
2024-01-27T02:31:34.099Z,5.60
2024-01-27T02:34:01.790Z,5.60
2024-01-27T02:36:29.592Z,5.60
2024-01-27T02:38:57.621Z,5.60
2024-01-27T02:41:26.081Z,5.60
2024-01-27T02:43:53.903Z,5.60
2024-01-27T02:46:21.543Z,5.60
2024-01-27T02:48:49.428Z,5.70
2024-01-27T02:51:21.756Z,5.70
2024-01-27T02:53:49.624Z,5.70
2024-01-27T02:58:55.191Z,5.70
2024-01-27T03:01:22.896Z,5.70
2024-01-27T03:03:50.652Z,5.70
2024-01-27T03:06:18.475Z,5.70
2024-01-27T03:08:46.352Z,5.70
2024-01-27T03:11:14.055Z,5.70
2024-01-27T03:13:46.225Z,5.70
2024-01-27T03:16:14.482Z,7.00
2024-01-27T03:18:42.148Z,5.70
2024-01-27T03:21:10.006Z,5.60
2024-01-27T03:23:37.642Z,5.60
2024-01-27T03:26:05.518Z,5.60
2024-01-27T03:28:33.154Z,5.60
2024-01-27T03:31:01.063Z,5.60
2024-01-27T03:33:30.929Z,5.60
2024-01-27T03:35:58.760Z,5.60
2024-01-27T03:38:26.342Z,5.60
2024-01-27T03:40:54.000Z,5.60
2024-01-27T03:43:22.415Z,5.60
2024-01-27T03:45:50.204Z,5.50
2024-01-27T03:48:17.964Z,5.40
2024-01-27T03:50:45.791Z,5.30
2024-01-27T03:53:13.362Z,5.20
2024-01-27T03:55:41.504Z,5.20
2024-01-27T03:58:09.115Z,5.10
2024-01-27T04:00:36.867Z,5.10
2024-01-27T04:03:04.672Z,5.00
2024-01-27T04:05:32.524Z,5.00
2024-01-27T04:08:00.204Z,5.00
2024-01-27T04:10:27.945Z,5.00
2024-01-27T04:12:55.682Z,5.00
2024-01-27T04:15:23.314Z,5.00
2024-01-27T04:17:51.008Z,5.00
2024-01-27T04:20:18.675Z,4.90
2024-01-27T04:22:46.235Z,4.90
2024-01-27T04:25:13.977Z,5.00
2024-01-27T04:27:43.469Z,5.00
2024-01-27T04:30:14.018Z,5.00
2024-01-27T04:32:41.869Z,5.00
2024-01-27T04:35:13.069Z,5.00
2024-01-27T04:37:40.685Z,5.00
2024-01-27T04:40:08.969Z,5.00
2024-01-27T04:42:38.996Z,5.00
2024-01-27T04:45:08.843Z,5.00
2024-01-27T04:47:36.629Z,5.00
2024-01-27T04:50:04.750Z,5.00
2024-01-27T04:52:33.159Z,5.00
2024-01-27T04:55:01.064Z,5.00
2024-01-27T04:57:28.738Z,5.00
2024-01-27T04:59:56.371Z,5.00
2024-01-27T05:02:24.197Z,5.10
2024-01-27T05:04:51.946Z,5.10
2024-01-27T05:07:19.597Z,5.10
2024-01-27T05:09:47.259Z,5.10
2024-01-27T05:12:14.859Z,5.20
2024-01-27T05:14:46.664Z,5.20
2024-01-27T05:17:14.383Z,5.20
2024-01-27T05:19:42.162Z,5.20
2024-01-27T05:22:09.759Z,5.20
2024-01-27T05:24:37.425Z,5.20
2024-01-27T05:27:05.352Z,5.30
2024-01-27T05:29:33.167Z,5.30
2024-01-27T05:32:00.822Z,5.30
2024-01-27T05:34:28.616Z,5.30
2024-01-27T05:36:56.330Z,5.30
2024-01-27T05:39:24.069Z,5.30
2024-01-27T05:41:51.801Z,5.30
2024-01-27T05:44:19.388Z,5.40
2024-01-27T05:46:46.999Z,5.40
2024-01-27T05:49:14.825Z,5.40
2024-01-27T05:51:42.829Z,5.40
2024-01-27T05:54:11.217Z,5.40
2024-01-27T05:56:39.620Z,5.40
2024-01-27T05:59:07.337Z,5.40
2024-01-27T06:01:35.025Z,5.40
2024-01-27T06:04:03.575Z,5.40
2024-01-27T06:06:31.321Z,5.40
2024-01-27T06:08:59.006Z,5.50
2024-01-27T06:11:27.320Z,5.50
2024-01-27T06:13:54.962Z,5.50
2024-01-27T06:16:22.644Z,5.50
2024-01-27T06:18:50.548Z,5.50
2024-01-27T06:21:18.174Z,5.50
2024-01-27T06:23:46.497Z,5.50
2024-01-27T06:26:15.168Z,5.50
2024-01-27T06:28:42.970Z,5.50
2024-01-27T06:31:11.171Z,5.50
2024-01-27T06:33:39.077Z,5.50
2024-01-27T06:36:07.646Z,5.60
2024-01-27T06:38:35.260Z,5.60
2024-01-27T06:41:02.900Z,5.60
2024-01-27T06:43:30.744Z,5.60
2024-01-27T06:45:59.066Z,5.60
2024-01-27T06:48:27.587Z,5.60
2024-01-27T06:50:55.610Z,5.60
2024-01-27T06:53:23.219Z,5.60
2024-01-27T06:55:50.804Z,5.60
2024-01-27T06:58:18.396Z,5.60
2024-01-27T07:00:46.683Z,5.60
2024-01-27T07:03:14.561Z,5.60
2024-01-27T07:05:42.689Z,5.60
2024-01-27T07:08:10.651Z,5.60
2024-01-27T07:10:38.465Z,5.60
2024-01-27T07:13:07.710Z,5.60
2024-01-27T07:15:35.517Z,5.60
2024-01-27T07:18:03.337Z,5.60
2024-01-27T07:20:31.195Z,5.60
2024-01-27T07:22:58.734Z,5.60
2024-01-27T07:25:26.409Z,5.70
2024-01-27T07:27:54.233Z,5.70
2024-01-27T07:30:22.081Z,5.60
2024-01-27T07:32:49.828Z,5.70
2024-01-27T07:35:17.609Z,5.70
2024-01-27T07:37:45.257Z,5.70
2024-01-27T07:40:13.338Z,5.70
2024-01-27T07:42:42.406Z,5.70
2024-01-27T07:45:10.321Z,4.60
2024-01-27T07:47:38.095Z,5.70
2024-01-27T07:50:06.181Z,5.70
2024-01-27T07:52:33.886Z,5.70
2024-01-27T07:55:01.559Z,5.70
2024-01-27T07:57:29.651Z,5.70
2024-01-27T07:59:57.393Z,5.70
2024-01-27T08:02:24.989Z,5.70
2024-01-27T08:04:52.680Z,5.70
2024-01-27T08:07:20.282Z,5.70
2024-01-27T08:09:47.955Z,5.80
2024-01-27T08:12:15.607Z,5.80
2024-01-27T08:14:43.675Z,5.80
2024-01-27T08:17:11.433Z,5.70
2024-01-27T08:19:39.214Z,5.80
2024-01-27T08:22:06.892Z,5.80
2024-01-27T08:24:34.571Z,5.80
2024-01-27T08:27:02.692Z,5.80
2024-01-27T08:29:30.435Z,5.80
2024-01-27T08:31:58.360Z,5.90
2024-01-27T08:34:26.272Z,5.90
2024-01-27T08:36:54.003Z,5.90
2024-01-27T08:39:21.674Z,5.90
2024-01-27T08:41:49.307Z,5.90
2024-01-27T08:44:16.934Z,5.90
2024-01-27T08:46:44.675Z,5.90
2024-01-27T08:49:12.307Z,5.90
2024-01-27T08:51:40.161Z,6.00
2024-01-27T08:54:07.953Z,6.00
2024-01-27T08:56:39.972Z,6.00
2024-01-27T08:59:08.004Z,6.00
2024-01-27T09:01:35.646Z,6.00
2024-01-27T09:04:03.455Z,6.00
2024-01-27T09:06:32.250Z,6.00
2024-01-27T09:09:00.253Z,6.00
2024-01-27T09:11:35.449Z,6.00
2024-01-27T09:14:03.745Z,6.00
2024-01-27T09:16:31.293Z,6.00
2024-01-27T09:18:59.098Z,6.00
2024-01-27T09:21:29.997Z,6.10
2024-01-27T09:23:58.529Z,6.10
2024-01-27T09:26:26.442Z,6.10
2024-01-27T09:28:56.799Z,6.20
2024-01-27T09:31:25.102Z,6.20
2024-01-27T09:33:54.496Z,6.20
2024-01-27T09:36:22.780Z,6.20
2024-01-27T09:38:50.812Z,6.30
2024-01-27T09:41:19.448Z,6.40
2024-01-27T09:43:48.742Z,6.40
2024-01-27T09:46:17.126Z,6.40
2024-01-27T09:48:45.962Z,6.50
2024-01-27T09:51:14.173Z,6.50
2024-01-27T09:53:41.817Z,6.50
2024-01-27T09:56:11.135Z,6.60
2024-01-27T09:58:38.874Z,6.70
2024-01-27T10:01:09.233Z,6.70
2024-01-27T10:03:39.776Z,6.80
2024-01-27T10:06:10.554Z,6.90
2024-01-27T10:08:38.839Z,6.90
2024-01-27T10:11:09.655Z,7.00
2024-01-27T10:13:37.850Z,7.00
2024-01-27T10:16:09.812Z,7.10
2024-01-27T10:18:37.681Z,7.10
2024-01-27T10:21:15.494Z,7.10
2024-01-27T10:23:43.427Z,7.10
2024-01-27T10:26:12.087Z,7.20
2024-01-27T10:28:40.044Z,7.20
2024-01-27T10:31:14.180Z,7.30
2024-01-27T10:33:53.816Z,7.40
2024-01-27T10:36:22.026Z,7.50
2024-01-27T10:38:50.178Z,8.30
2024-01-27T10:41:28.508Z,7.70
2024-01-27T10:43:59.339Z,7.80
2024-01-27T10:46:27.180Z,7.90
2024-01-27T10:48:55.267Z,7.90
2024-01-27T10:51:36.449Z,8.00
2024-01-27T10:54:05.221Z,8.00
2024-01-27T10:56:38.072Z,8.00
2024-01-27T10:59:10.742Z,8.10
2024-01-27T11:01:41.166Z,8.10
2024-01-27T11:04:11.922Z,8.10
2024-01-27T11:06:39.890Z,8.20
2024-01-27T11:09:09.938Z,7.00
2024-01-27T11:11:38.851Z,8.30
2024-01-27T11:14:07.383Z,9.20
2024-01-27T11:16:36.141Z,8.50
2024-01-27T11:19:03.797Z,8.60
2024-01-27T11:21:31.489Z,8.60
2024-01-27T11:23:59.094Z,8.70
2024-01-27T11:26:27.242Z,8.70
2024-01-27T11:28:54.969Z,8.80
2024-01-27T11:31:22.658Z,8.80
2024-01-27T11:33:54.355Z,8.80
2024-01-27T11:36:26.462Z,8.80
2024-01-27T11:38:55.424Z,8.80
2024-01-27T11:41:30.764Z,8.90
2024-01-27T11:44:01.040Z,8.90
2024-01-27T11:46:29.048Z,9.00
2024-01-27T11:48:57.284Z,9.10
2024-01-27T11:51:26.530Z,9.10
2024-01-27T11:53:54.322Z,9.10
2024-01-27T11:56:22.561Z,9.00
2024-01-27T11:58:51.532Z,8.90
2024-01-27T12:01:19.896Z,8.80
2024-01-27T12:03:48.117Z,8.60
2024-01-27T12:06:16.486Z,8.50
2024-01-27T12:08:50.782Z,8.40
2024-01-27T12:11:22.200Z,8.30
2024-01-27T12:13:53.646Z,8.20
2024-01-27T12:16:24.608Z,8.20
2024-01-27T12:18:56.131Z,8.20
2024-01-27T12:21:24.941Z,8.10
2024-01-27T12:23:54.443Z,8.10
2024-01-27T12:26:23.744Z,8.10
2024-01-27T12:28:51.413Z,8.10
2024-01-27T12:31:19.952Z,8.20
2024-01-27T12:33:55.435Z,8.20
2024-01-27T12:36:23.995Z,8.20
2024-01-27T12:39:02.929Z,8.20
2024-01-27T12:41:30.927Z,8.30
2024-01-27T12:43:59.385Z,8.20
2024-01-27T12:46:27.301Z,8.20
2024-01-27T12:48:55.422Z,8.20
2024-01-27T12:51:23.155Z,8.30
2024-01-27T12:53:50.881Z,8.30
2024-01-27T12:56:18.646Z,8.40
2024-01-27T12:58:46.532Z,8.40
2024-01-27T13:01:14.358Z,8.40
2024-01-27T13:03:45.256Z,8.40
2024-01-27T13:06:14.570Z,8.40
2024-01-27T13:08:43.194Z,8.40
2024-01-27T13:11:11.468Z,8.50
2024-01-27T13:13:39.174Z,8.40
2024-01-27T13:16:07.561Z,8.40
2024-01-27T13:18:35.324Z,8.40
2024-01-27T13:21:04.794Z,8.40
2024-01-27T13:23:32.824Z,8.30
2024-01-27T13:26:13.358Z,8.30
2024-01-27T13:28:47.323Z,8.30
2024-01-27T13:31:15.200Z,8.30
2024-01-27T13:33:43.284Z,8.20
2024-01-27T13:36:11.196Z,8.20
2024-01-27T13:38:39.046Z,8.20
2024-01-27T13:41:06.632Z,8.10
2024-01-27T13:43:34.486Z,8.00
2024-01-27T13:46:02.464Z,8.00
2024-01-27T13:48:30.700Z,8.00
2024-01-27T13:50:58.595Z,8.00
2024-01-27T13:53:35.745Z,8.00
2024-01-27T13:56:11.244Z,8.10
2024-01-27T13:58:39.016Z,8.10
2024-01-27T14:01:07.439Z,8.10
2024-01-27T14:03:35.268Z,8.10
2024-01-27T14:06:03.073Z,8.10
2024-01-27T14:08:31.134Z,8.10
2024-01-27T14:10:58.901Z,9.70
2024-01-27T14:13:26.477Z,8.10
2024-01-27T14:15:54.087Z,8.10
2024-01-27T14:18:22.944Z,8.10
2024-01-27T14:20:52.084Z,8.20
2024-01-27T14:23:19.895Z,8.10
2024-01-27T14:25:48.345Z,8.10
2024-01-27T14:28:16.558Z,8.10
2024-01-27T14:30:45.602Z,8.10
2024-01-27T14:33:14.246Z,7.10
2024-01-27T14:35:42.155Z,8.10
2024-01-27T14:38:10.824Z,8.10
2024-01-27T14:40:39.000Z,8.00
2024-01-27T14:43:10.910Z,8.00
2024-01-27T14:45:38.811Z,8.00
2024-01-27T14:48:07.124Z,7.90
2024-01-27T14:50:34.841Z,7.90
2024-01-27T14:53:06.416Z,7.90
2024-01-27T14:55:34.675Z,7.90
2024-01-27T14:58:05.037Z,7.90
2024-01-27T15:00:32.940Z,7.90
2024-01-27T15:03:03.112Z,7.90
2024-01-27T15:05:31.030Z,7.90
2024-01-27T15:07:58.693Z,7.90
2024-01-27T15:10:26.377Z,7.90
2024-01-27T15:12:54.077Z,10.00
2024-01-27T15:15:21.685Z,7.90
2024-01-27T15:17:49.286Z,7.90
2024-01-27T15:20:17.069Z,7.90
2024-01-27T15:22:45.792Z,7.90
2024-01-27T15:25:13.898Z,7.90
2024-01-27T15:27:41.802Z,7.90
2024-01-27T15:30:09.959Z,7.80
2024-01-27T15:32:37.794Z,7.80
2024-01-27T15:35:06.845Z,7.80
2024-01-27T15:37:34.528Z,7.80
2024-01-27T15:40:02.681Z,7.70
2024-01-27T15:42:31.937Z,7.70
2024-01-27T15:44:59.673Z,7.60
2024-01-27T15:47:27.335Z,7.60
2024-01-27T15:49:58.623Z,7.50
2024-01-27T15:52:26.324Z,7.50
2024-01-27T15:54:54.034Z,7.00
2024-01-27T15:57:23.287Z,7.30
2024-01-27T15:59:51.103Z,7.30
2024-01-27T16:02:18.761Z,7.20
2024-01-27T16:04:46.760Z,7.20
2024-01-27T16:07:14.493Z,7.10
2024-01-27T16:09:47.914Z,7.10
2024-01-27T16:12:16.597Z,7.00
2024-01-27T16:14:44.199Z,7.00
2024-01-27T16:17:13.135Z,7.00
2024-01-27T16:19:41.073Z,6.90
2024-01-27T16:22:08.814Z,7.70
2024-01-27T16:24:36.588Z,6.80
2024-01-27T16:27:05.229Z,4.90
2024-01-27T16:29:32.861Z,6.80
2024-01-27T16:32:01.225Z,6.80
2024-01-27T16:34:28.943Z,6.70
2024-01-27T16:36:56.716Z,6.70
2024-01-27T16:39:24.734Z,6.70
2024-01-27T16:41:52.355Z,6.70
2024-01-27T16:44:21.736Z,4.00
2024-01-27T16:46:49.632Z,6.60
2024-01-27T16:49:17.299Z,6.60
2024-01-27T16:51:45.140Z,6.60
2024-01-27T16:54:15.596Z,7.80
2024-01-27T16:56:43.488Z,6.70
2024-01-27T16:59:11.157Z,6.70
2024-01-27T17:01:38.839Z,6.70
2024-01-27T17:04:08.424Z,6.70
2024-01-27T17:06:36.135Z,6.60
2024-01-27T17:09:04.081Z,6.60
2024-01-27T17:11:32.106Z,5.20
2024-01-27T17:14:00.769Z,6.50
2024-01-27T17:16:28.340Z,6.50
2024-01-27T17:18:56.123Z,6.50
2024-01-27T17:21:23.833Z,6.50
2024-01-27T17:23:51.436Z,6.50
2024-01-27T17:26:19.511Z,6.40
2024-01-27T17:28:47.179Z,6.40
2024-01-27T17:31:14.938Z,6.40
2024-01-27T17:33:47.090Z,6.40
2024-01-27T17:36:15.569Z,6.40
2024-01-27T17:38:43.256Z,6.40
2024-01-27T17:41:10.853Z,6.40
2024-01-27T17:43:38.432Z,4.40
2024-01-27T17:46:06.592Z,6.30
2024-01-27T17:48:34.483Z,6.30
2024-01-27T17:51:02.211Z,5.50
2024-01-27T17:53:29.885Z,6.30
2024-01-27T17:55:57.474Z,6.30
2024-01-27T17:58:25.087Z,6.30
2024-01-27T18:00:53.229Z,6.30
2024-01-27T18:03:21.087Z,6.20
2024-01-27T18:05:50.846Z,6.20
2024-01-27T18:08:19.060Z,6.10
2024-01-27T18:10:46.739Z,6.00
2024-01-27T18:13:14.429Z,6.00
2024-01-27T18:15:42.222Z,5.90
2024-01-27T18:18:10.205Z,3.10
2024-01-27T18:20:37.851Z,7.50
2024-01-27T18:23:05.783Z,5.80
2024-01-27T18:25:35.924Z,5.70
2024-01-27T18:28:05.270Z,5.70
2024-01-27T18:30:33.037Z,5.70
2024-01-27T18:33:05.186Z,5.70
2024-01-27T18:35:33.886Z,5.70
2024-01-27T18:38:01.597Z,5.70
2024-01-27T18:40:29.220Z,5.70
2024-01-27T18:42:56.943Z,5.80
2024-01-27T18:45:24.922Z,5.70
2024-01-27T18:47:52.767Z,5.80
2024-01-27T18:50:20.614Z,5.70
2024-01-27T18:52:54.434Z,5.80
2024-01-27T18:55:25.147Z,6.40
2024-01-27T18:57:52.867Z,5.70
2024-01-27T19:00:20.733Z,5.70
2024-01-27T19:02:48.409Z,5.70
2024-01-27T19:05:17.817Z,5.70
2024-01-27T19:07:49.853Z,5.70
2024-01-27T19:10:17.508Z,5.70
2024-01-27T19:12:45.108Z,5.60
2024-01-27T19:15:13.364Z,5.60
2024-01-27T19:17:41.090Z,5.70
2024-01-27T19:22:40.794Z,5.60
2024-01-27T19:25:09.477Z,5.60
2024-01-27T19:27:37.184Z,5.60
2024-01-27T19:30:06.758Z,5.60
2024-01-27T19:32:34.799Z,5.60
2024-01-27T19:35:03.228Z,5.60
2024-01-27T19:37:31.297Z,5.60
2024-01-27T19:42:27.190Z,5.70
2024-01-27T19:44:55.076Z,5.70
2024-01-27T19:47:22.778Z,3.90
2024-01-27T19:49:50.772Z,5.80
2024-01-27T19:52:18.598Z,6.60
2024-01-27T19:54:46.300Z,5.90
2024-01-27T19:57:15.182Z,5.90
2024-01-27T19:59:43.573Z,6.00
2024-01-27T20:02:11.364Z,6.00
2024-01-27T20:04:39.918Z,6.00
2024-01-27T20:07:07.622Z,6.00
2024-01-27T20:09:35.427Z,6.10
2024-01-27T20:12:03.944Z,6.10
2024-01-27T20:14:31.782Z,6.10
2024-01-27T20:17:00.058Z,6.10
2024-01-27T20:19:27.693Z,6.10
2024-01-27T20:21:55.464Z,6.10
2024-01-27T20:24:23.373Z,6.10
2024-01-27T20:26:51.061Z,6.10
2024-01-27T20:29:18.783Z,6.10
2024-01-27T20:31:46.427Z,6.10
2024-01-27T20:34:14.485Z,6.10
2024-01-27T20:36:42.697Z,6.10
2024-01-27T20:39:10.822Z,6.10
2024-01-27T20:41:39.133Z,6.10
2024-01-27T20:44:06.916Z,6.30
2024-01-27T20:46:34.581Z,6.00
2024-01-27T20:49:02.561Z,7.50
2024-01-27T20:51:30.659Z,6.00
2024-01-27T20:53:58.341Z,6.00
2024-01-27T20:56:25.981Z,6.00
2024-01-27T20:58:53.564Z,6.00
2024-01-27T21:01:23.063Z,6.00
2024-01-27T21:03:51.492Z,6.00
2024-01-27T21:06:19.417Z,6.00
2024-01-27T21:08:47.618Z,6.00
2024-01-27T21:11:16.980Z,6.00
2024-01-27T21:13:44.631Z,6.00
2024-01-27T21:16:12.280Z,5.90
2024-01-27T21:18:40.439Z,5.90
2024-01-27T21:21:08.579Z,5.90
2024-01-27T21:23:36.258Z,5.90
2024-01-27T21:26:04.568Z,5.80
2024-01-27T21:28:32.628Z,5.80
2024-01-27T21:31:00.294Z,5.70
2024-01-27T21:33:30.865Z,5.70
2024-01-27T21:35:58.668Z,5.70
2024-01-27T21:38:26.521Z,5.60
2024-01-27T21:40:54.217Z,3.70
2024-01-27T21:43:21.959Z,5.60
2024-01-27T21:45:49.810Z,5.60
2024-01-27T21:48:17.630Z,5.60
2024-01-27T21:50:45.361Z,5.60
2024-01-27T21:53:12.904Z,5.60
2024-01-27T21:55:41.775Z,5.20
2024-01-27T21:58:09.769Z,5.50
2024-01-27T22:00:37.633Z,5.40
2024-01-27T22:03:05.627Z,5.40
2024-01-27T22:05:34.252Z,5.30
2024-01-27T22:08:04.576Z,5.30
2024-01-27T22:10:32.812Z,5.20
2024-01-27T22:13:00.381Z,5.20
2024-01-27T22:15:28.093Z,5.20
2024-01-27T22:17:55.786Z,5.20
2024-01-27T22:20:23.460Z,5.30
2024-01-27T22:22:51.159Z,6.90
2024-01-27T22:25:19.009Z,5.30
2024-01-27T22:27:46.809Z,5.40
2024-01-27T22:30:16.222Z,5.40
2024-01-27T22:32:44.119Z,5.40
2024-01-27T22:35:11.801Z,5.50
2024-01-27T22:37:39.472Z,5.50
2024-01-27T22:40:08.236Z,5.60
2024-01-27T22:42:36.261Z,5.70
2024-01-27T22:45:04.344Z,5.70
2024-01-27T22:47:32.688Z,5.70
2024-01-27T22:50:04.325Z,5.80
2024-01-27T22:52:32.148Z,5.80
2024-01-27T22:55:00.041Z,5.80
2024-01-27T22:57:27.970Z,5.80
2024-01-27T22:59:55.575Z,5.90
2024-01-27T23:02:23.145Z,5.90
2024-01-27T23:04:51.034Z,5.90
2024-01-27T23:07:18.864Z,5.90
2024-01-27T23:09:47.779Z,6.00
2024-01-27T23:12:15.815Z,6.00
2024-01-27T23:14:44.612Z,6.00
2024-01-27T23:17:12.295Z,6.00
2024-01-27T23:19:40.078Z,5.00
2024-01-27T23:22:07.833Z,6.00
2024-01-27T23:24:35.663Z,6.10
2024-01-27T23:27:03.833Z,6.10
2024-01-27T23:29:38.206Z,6.10
2024-01-27T23:32:06.811Z,6.10
2024-01-27T23:34:34.626Z,6.10
2024-01-27T23:37:02.577Z,6.10
2024-01-27T23:39:30.388Z,6.10
2024-01-27T23:41:58.167Z,6.10
2024-01-27T23:44:25.802Z,6.10
2024-01-27T23:46:53.454Z,6.00
2024-01-27T23:49:21.104Z,6.00
2024-01-27T23:51:48.826Z,6.00
2024-01-27T23:54:16.496Z,6.00
2024-01-27T23:56:45.781Z,6.00
2024-01-27T23:59:14.899Z,6.00
